Time;durP1;ratioP1;P1;durP2;ratioP2;P2;SDS_P1;SDS_P2;PMS_P1;PMS_P2;Temp;Humidity;BMP_temperature;BMP_pressure;BME280_temperature;BME280_humidity;BME280_pressure;Samples;Min_cycle;Max_cycle;Signal;HPM_P1;HPM_P2
2022/03/16 00:01:52;;;;;;;25.93;23.20;;;;;;;6.84;100.00;99779.72;4903882;29;20267;-76
2022/03/16 00:04:19;;;;;;;24.37;21.87;;;;;;;6.85;100.00;99760.88;4903867;29;20233;-75
2022/03/16 00:06:46;;;;;;;25.77;22.97;;;;;;;6.84;100.00;99761.06;4908404;29;20253;-76
2022/03/16 00:09:13;;;;;;;26.43;22.73;;;;;;;6.81;100.00;99758.78;4908349;29;20325;-76
2022/03/16 00:11:40;;;;;;;24.97;22.20;;;;;;;6.79;100.00;99743.00;4906771;29;20649;-79
2022/03/16 00:14:07;;;;;;;25.27;22.10;;;;;;;6.76;100.00;99748.72;4908201;29;20290;-76
2022/03/16 00:16:33;;;;;;;24.17;21.57;;;;;;;6.80;100.00;99752.66;4902332;29;20798;-76
2022/03/16 00:19:00;;;;;;;24.83;22.20;;;;;;;6.81;100.00;99753.47;4905342;29;20246;-76
2022/03/16 00:21:27;;;;;;;24.13;21.70;;;;;;;6.69;100.00;99749.66;4909795;29;20277;-76
2022/03/16 00:23:54;;;;;;;23.37;21.00;;;;;;;6.66;100.00;99753.53;4903526;29;20245;-76
2022/03/16 00:26:21;;;;;;;25.40;22.13;;;;;;;6.68;100.00;99745.34;4907392;29;20247;-76
2022/03/16 00:28:47;;;;;;;24.83;21.63;;;;;;;6.70;100.00;99738.81;4904459;29;20246;-77
2022/03/16 00:31:15;;;;;;;23.83;21.30;;;;;;;6.69;100.00;99729.19;4908986;29;20234;-78
2022/03/16 00:33:41;;;;;;;23.43;20.17;;;;;;;6.71;100.00;99723.69;4909429;29;20325;-76
2022/03/16 00:36:08;;;;;;;24.43;21.63;;;;;;;6.72;100.00;99715.47;4907397;29;20239;-78
2022/03/16 00:38:35;;;;;;;23.23;20.77;;;;;;;6.77;100.00;99721.06;4906499;29;20240;-76
2022/03/16 00:41:02;;;;;;;23.60;20.80;;;;;;;6.75;100.00;99717.78;4903858;29;20235;-76
2022/03/16 00:43:29;;;;;;;23.97;21.43;;;;;;;6.68;100.00;99700.06;4913132;29;20252;-76
2022/03/16 00:45:56;;;;;;;24.10;21.60;;;;;;;6.72;100.00;99702.16;4906339;29;20317;-76
2022/03/16 00:48:23;;;;;;;22.87;20.53;;;;;;;6.74;100.00;99697.47;4902394;29;20246;-76
2022/03/16 00:50:49;;;;;;;24.43;21.60;;;;;;;6.72;100.00;99701.38;4909549;29;20738;-75
2022/03/16 00:53:16;;;;;;;23.97;21.50;;;;;;;6.71;100.00;99687.22;4905589;29;20318;-76
2022/03/16 00:55:43;;;;;;;24.07;21.57;;;;;;;6.74;100.00;99684.16;4906240;29;20258;-76
2022/03/16 00:58:09;;;;;;;24.10;21.50;;;;;;;6.75;100.00;99667.19;4907535;29;20333;-75
2022/03/16 01:00:36;;;;;;;23.67;21.17;;;;;;;6.76;100.00;99668.84;4909446;29;20238;-77
2022/03/16 01:03:06;;;;;;;24.23;21.80;;;;;;;6.73;100.00;99668.38;4905320;29;20296;-76
2022/03/16 01:05:32;;;;;;;23.00;20.30;;;;;;;6.72;100.00;99667.56;4909533;29;20325;-77
2022/03/16 01:07:59;;;;;;;24.10;21.50;;;;;;;6.73;100.00;99655.06;4906409;29;20226;-76
2022/03/16 01:10:26;;;;;;;23.97;21.33;;;;;;;6.72;100.00;99645.44;4910518;29;20321;-76
2022/03/16 01:12:55;;;;;;;24.43;21.13;;;;;;;6.72;100.00;99654.25;4909999;29;20238;-75
2022/03/16 01:15:23;;;;;;;23.13;20.73;;;;;;;6.74;100.00;99644.22;4909025;29;20313;-76
2022/03/16 01:17:50;;;;;;;23.80;21.07;;;;;;;6.73;100.00;99655.88;4912137;29;20705;-76
2022/03/16 01:20:18;;;;;;;25.07;20.60;;;;;;;6.76;100.00;99654.69;4906503;29;20687;-75
2022/03/16 01:22:45;;;;;;;25.77;21.00;;;;;;;6.78;100.00;99650.81;4907550;29;20262;-75
2022/03/16 01:25:12;;;;;;;24.03;21.53;;;;;;;6.78;100.00;99648.16;4910053;29;20238;-76
2022/03/16 01:27:40;;;;;;;23.40;20.73;;;;;;;6.78;100.00;99642.81;4909249;29;20649;-77
2022/03/16 01:30:07;;;;;;;22.27;19.97;;;;;;;6.79;100.00;99644.47;4909856;29;20762;-75
2022/03/16 01:32:34;;;;;;;23.33;20.33;;;;;;;6.79;100.00;99633.81;4909828;29;20241;-76
2022/03/16 01:35:01;;;;;;;23.70;21.20;;;;;;;6.84;100.00;99638.56;4909651;29;20338;-76
2022/03/16 01:37:30;;;;;;;23.57;21.07;;;;;;;6.85;100.00;99645.53;4908879;29;20242;-76
2022/03/16 01:39:58;;;;;;;23.33;20.83;;;;;;;6.87;100.00;99640.81;4908385;29;20249;-74
2022/03/16 01:42:25;;;;;;;25.03;20.83;;;;;;;6.88;100.00;99651.28;4910054;29;20244;-74
2022/03/16 01:44:54;;;;;;;24.73;21.97;;;;;;;6.87;100.00;99646.97;4909213;29;20244;-74
2022/03/16 01:47:22;;;;;;;23.83;21.03;;;;;;;6.86;100.00;99637.34;4894675;29;20253;-74
2022/03/16 01:49:50;;;;;;;24.30;21.30;;;;;;;6.92;100.00;99644.56;4908070;29;20265;-75
2022/03/16 01:52:25;;;;;;;23.77;21.33;;;;;;;6.86;100.00;99645.31;4910686;29;20230;-75
2022/03/16 01:54:53;;;;;;;23.97;21.23;;;;;;;6.86;100.00;99647.19;4890548;29;20268;-75
2022/03/16 01:57:20;;;;;;;24.30;20.80;;;;;;;6.85;100.00;99637.53;4890717;29;20227;-75
2022/03/16 01:59:47;;;;;;;24.07;20.80;;;;;;;6.87;100.00;99627.50;4910701;29;20269;-75
2022/03/16 02:02:15;;;;;;;23.37;21.07;;;;;;;6.88;100.00;99616.66;4908669;29;20234;-75
2022/03/16 02:04:42;;;;;;;23.40;21.10;;;;;;;6.86;100.00;99616.03;4911241;29;20766;-75
2022/03/16 02:07:09;;;;;;;24.87;20.70;;;;;;;6.84;100.00;99614.59;4903563;29;20616;-77
2022/03/16 02:09:36;;;;;;;20.43;18.40;;;;;;;6.91;100.00;99618.09;4909408;29;20321;-76
2022/03/16 02:12:03;;;;;;;19.63;17.13;;;;;;;6.93;100.00;99626.72;4904561;29;20329;-76
2022/03/16 02:14:30;;;;;;;21.40;17.77;;;;;;;6.96;100.00;99619.16;4912108;29;20336;-75
2022/03/16 02:16:58;;;;;;;20.73;16.83;;;;;;;7.00;100.00;99619.59;4906075;29;20243;-75
2022/03/16 02:19:25;;;;;;;18.50;16.50;;;;;;;7.04;100.00;99628.84;4909906;29;20256;-75
2022/03/16 02:21:57;;;;;;;17.90;14.83;;;;;;;7.14;100.00;99621.31;4910853;29;20262;-74
2022/03/16 02:24:25;;;;;;;17.90;14.67;;;;;;;7.21;100.00;99627.50;4907325;29;20250;-75
2022/03/16 02:26:52;;;;;;;16.53;14.00;;;;;;;7.27;100.00;99621.38;4907046;29;20250;-75
2022/03/16 02:29:19;;;;;;;13.43;12.00;;;;;;;7.43;100.00;99622.88;4907051;29;20235;-75
2022/03/16 02:31:46;;;;;;;12.53;11.23;;;;;;;7.65;100.00;99624.38;4907540;29;20727;-76
2022/03/16 02:34:13;;;;;;;12.63;10.30;;;;;;;7.67;100.00;99625.00;4901723;29;20230;-76
2022/03/16 02:36:40;;;;;;;11.27;8.80;;;;;;;7.85;100.00;99613.75;4906421;29;20238;-76
2022/03/16 02:39:07;;;;;;;11.13;8.00;;;;;;;7.91;100.00;99613.78;4898816;29;20246;-75
2022/03/16 02:41:33;;;;;;;8.80;6.83;;;;;;;7.93;100.00;99610.91;4911325;29;20793;-76
2022/03/16 02:44:00;;;;;;;7.23;6.43;;;;;;;8.17;100.00;99598.81;4905779;29;20229;-75
2022/03/16 02:46:27;;;;;;;6.23;5.10;;;;;;;8.35;100.00;99599.06;4909029;29;20714;-74
2022/03/16 02:48:54;;;;;;;5.70;4.47;;;;;;;8.39;100.00;99597.63;4904488;29;20270;-76
2022/03/16 02:51:21;;;;;;;4.50;4.10;;;;;;;8.59;100.00;99598.41;4904857;29;20253;-75
2022/03/16 02:53:48;;;;;;;5.07;3.80;;;;;;;8.78;100.00;99610.09;4913975;29;20324;-76
2022/03/16 02:56:15;;;;;;;5.00;3.67;;;;;;;8.93;100.00;99605.34;4905001;29;20600;-76
2022/03/16 02:58:42;;;;;;;3.53;3.23;;;;;;;9.28;100.00;99595.19;4903103;29;20238;-76
2022/03/16 03:01:13;;;;;;;4.50;3.40;;;;;;;9.42;100.00;99614.66;4898714;29;20764;-75
2022/03/16 03:03:40;;;;;;;4.37;3.00;;;;;;;9.36;100.00;99613.66;4911343;29;20230;-76
2022/03/16 03:06:06;;;;;;;4.73;3.37;;;;;;;9.71;100.00;99609.56;4904288;29;20245;-76
2022/03/16 03:08:33;;;;;;;3.77;3.47;;;;;;;9.87;100.00;99623.47;4901866;29;20257;-78
2022/03/16 03:11:00;;;;;;;5.70;3.57;;;;;;;9.77;100.00;99621.25;4904276;29;20616;-78
2022/03/16 03:13:27;;;;;;;4.27;3.70;;;;;;;9.85;100.00;99622.84;4910806;29;20280;-78
2022/03/16 03:15:54;;;;;;;4.40;4.00;;;;;;;9.87;100.00;99621.63;4903057;29;20272;-78
2022/03/16 03:18:21;;;;;;;4.13;3.70;;;;;;;9.87;100.00;99607.41;4909802;29;20274;-78
2022/03/16 03:20:48;;;;;;;5.00;4.10;;;;;;;9.99;100.00;99606.50;4903915;29;20234;-80
2022/03/16 03:23:15;;;;;;;4.37;3.97;;;;;;;9.84;100.00;99606.00;4909551;29;20664;-78
2022/03/16 03:25:41;;;;;;;4.80;4.33;;;;;;;9.79;100.00;99611.16;4910916;29;20254;-78
2022/03/16 03:28:08;;;;;;;4.57;4.13;;;;;;;9.75;100.00;99619.84;4907238;29;20254;-78
2022/03/16 03:30:35;;;;;;;4.70;3.97;;;;;;;9.86;100.00;99624.50;4905948;29;20240;-78
2022/03/16 03:33:02;;;;;;;4.73;4.23;;;;;;;9.84;100.00;99629.25;4905528;29;20272;-78
2022/03/16 03:35:28;;;;;;;5.10;4.60;;;;;;;9.87;100.00;99629.63;4910711;29;20246;-78
2022/03/16 03:37:55;;;;;;;5.20;4.70;;;;;;;9.85;100.00;99631.69;4905668;29;20239;-78
2022/03/16 03:40:22;;;;;;;5.77;4.20;;;;;;;9.93;100.00;99634.16;4908693;29;20714;-79
2022/03/16 03:42:49;;;;;;;5.03;4.60;;;;;;;9.90;100.00;99631.06;4911197;29;20234;-79
2022/03/16 03:45:16;;;;;;;5.13;4.63;;;;;;;10.01;100.00;99633.06;4905850;29;20259;-79
2022/03/16 03:47:43;;;;;;;4.80;4.40;;;;;;;10.13;100.00;99632.13;4906857;29;20248;-79
2022/03/16 03:50:11;;;;;;;5.33;4.80;;;;;;;10.17;100.00;99632.59;4911116;29;20288;-79
2022/03/16 03:52:38;;;;;;;6.07;5.43;;;;;;;10.17;100.00;99624.53;4908739;29;20232;-79
2022/03/16 03:55:05;;;;;;;5.80;5.20;;;;;;;10.12;100.00;99617.09;4912367;29;20244;-79
2022/03/16 03:57:31;;;;;;;6.10;5.20;;;;;;;10.18;100.00;99626.16;4906507;29;20230;-79
2022/03/16 03:59:58;;;;;;;6.63;6.03;;;;;;;10.31;100.00;99634.09;4906409;29;20273;-79
2022/03/16 04:02:25;;;;;;;6.23;5.63;;;;;;;10.37;100.00;99630.56;4901667;29;20664;-79
2022/03/16 04:04:52;;;;;;;6.20;5.60;;;;;;;10.30;100.00;99631.66;4902953;29;20245;-79
2022/03/16 04:07:18;;;;;;;6.33;5.80;;;;;;;10.32;100.00;99635.75;4904744;29;20311;-79
2022/03/16 04:09:48;;;;;;;6.67;5.63;;;;;;;10.30;100.00;99634.34;4910647;29;20248;-79
2022/03/16 04:12:15;;;;;;;6.53;5.77;;;;;;;10.37;100.00;99641.25;4902177;29;20321;-79
2022/03/16 04:14:42;;;;;;;7.00;6.40;;;;;;;10.39;100.00;99633.84;4910499;29;20273;-78
2022/03/16 04:17:08;;;;;;;7.73;6.60;;;;;;;10.33;100.00;99645.44;4907946;29;20316;-78
2022/03/16 04:19:35;;;;;;;7.07;6.40;;;;;;;10.19;100.00;99651.09;4905956;29;20238;-78
2022/03/16 04:22:02;;;;;;;7.30;6.60;;;;;;;10.27;100.00;99646.28;4904312;29;20230;-78
2022/03/16 04:24:29;;;;;;;7.73;7.00;;;;;;;10.52;100.00;99641.78;4905647;29;20231;-79
2022/03/16 04:26:56;;;;;;;7.60;6.80;;;;;;;10.42;100.00;99643.28;4911160;29;20242;-78
2022/03/16 04:29:23;;;;;;;7.20;6.50;;;;;;;10.39;100.00;99649.91;4908396;29;20322;-78
2022/03/16 04:31:50;;;;;;;7.67;6.97;;;;;;;10.45;100.00;99656.28;4910090;29;20257;-78
2022/03/16 04:34:16;;;;;;;8.63;7.47;;;;;;;10.33;100.00;99650.78;4903696;29;20321;-78
2022/03/16 04:36:43;;;;;;;7.60;7.00;;;;;;;10.37;100.00;99651.16;4902351;29;20341;-78
2022/03/16 04:39:10;;;;;;;7.67;6.97;;;;;;;10.38;100.00;99663.50;4900352;29;20268;-79
2022/03/16 04:41:37;;;;;;;8.03;7.33;;;;;;;10.49;100.00;99671.69;4905156;29;20253;-79
2022/03/16 04:44:03;;;;;;;7.60;6.90;;;;;;;10.47;100.00;99680.97;4908805;29;20245;-77
2022/03/16 04:46:30;;;;;;;8.00;7.30;;;;;;;10.46;100.00;99682.00;4908370;29;20269;-78
2022/03/16 04:48:57;;;;;;;8.57;7.77;;;;;;;10.42;100.00;99696.84;4909967;29;20234;-78
2022/03/16 04:51:24;;;;;;;8.80;8.00;;;;;;;10.49;100.00;99698.47;4908260;29;20250;-78
2022/03/16 04:53:51;;;;;;;8.70;7.90;;;;;;;10.55;100.00;99700.25;4899088;29;20231;-75
2022/03/16 04:56:17;;;;;;;9.47;8.57;;;;;;;10.40;100.00;99706.97;4902027;29;20262;-77
2022/03/16 04:58:44;;;;;;;8.63;7.83;;;;;;;10.33;100.00;99709.69;4909645;29;20322;-75
2022/03/16 05:01:11;;;;;;;7.87;7.17;;;;;;;10.29;100.00;99713.84;4907165;29;20727;-75
2022/03/16 05:03:38;;;;;;;7.10;6.43;;;;;;;10.12;100.00;99712.69;4909327;29;20230;-77
2022/03/16 05:06:06;;;;;;;7.23;6.63;;;;;;;10.10;100.00;99726.28;4907589;29;20230;-77
2022/03/16 05:08:35;;;;;;;7.13;6.43;;;;;;;10.00;100.00;99728.59;4907407;29;20238;-76
2022/03/16 05:11:02;;;;;;;6.60;6.00;;;;;;;9.96;100.00;99727.38;4905041;29;20714;-76
2022/03/16 05:13:29;;;;;;;8.00;7.20;;;;;;;9.96;100.00;99742.63;4904070;29;20732;-77
2022/03/16 05:15:56;;;;;;;6.93;6.33;;;;;;;9.93;100.00;99748.41;4902104;29;20307;-79
2022/03/16 05:18:23;;;;;;;6.67;6.07;;;;;;;9.91;100.00;99751.28;4901933;29;20261;-78
2022/03/16 05:20:50;;;;;;;7.43;6.73;;;;;;;9.81;100.00;99753.56;4909756;29;20608;-78
2022/03/16 05:23:16;;;;;;;7.13;6.50;;;;;;;9.58;100.00;99750.56;4902900;29;21612;-76
2022/03/16 05:25:43;;;;;;;7.80;7.10;;;;;;;9.54;100.00;99758.19;4904341;29;20234;-77
2022/03/16 05:28:10;;;;;;;8.43;7.73;;;;;;;9.71;100.00;99775.44;4907117;29;20246;-76
2022/03/16 05:30:37;;;;;;;8.50;7.70;;;;;;;9.73;100.00;99775.22;4905776;29;20245;-76
2022/03/16 05:33:04;;;;;;;8.20;7.40;;;;;;;9.65;100.00;99775.47;4906129;29;20322;-76
2022/03/16 05:35:31;;;;;;;8.43;7.63;;;;;;;9.57;100.00;99775.66;4907174;29;20659;-76
2022/03/16 05:38:00;;;;;;;9.20;8.30;;;;;;;9.59;100.00;99773.63;4901271;29;20238;-76
2022/03/16 05:40:26;;;;;;;9.30;8.40;;;;;;;9.56;100.00;99787.41;4902608;29;20243;-76
2022/03/16 05:42:53;;;;;;;8.63;7.93;;;;;;;9.78;100.00;99796.00;4905377;29;20249;-76
2022/03/16 05:45:21;;;;;;;9.17;8.33;;;;;;;9.62;100.00;99800.75;4902560;29;20239;-77
2022/03/16 05:47:48;;;;;;;9.30;8.47;;;;;;;9.62;100.00;99805.28;4905394;29;20238;-75
2022/03/16 05:50:15;;;;;;;8.73;8.03;;;;;;;9.67;100.00;99800.97;4905409;29;20613;-75
2022/03/16 05:52:43;;;;;;;9.57;8.67;;;;;;;9.77;100.00;99799.69;4908669;29;20234;-77
2022/03/16 05:55:12;;;;;;;8.67;7.97;;;;;;;9.72;100.00;99805.69;4906771;29;21227;-76
2022/03/16 05:57:41;;;;;;;9.20;8.30;;;;;;;9.83;100.00;99814.91;4907762;29;20238;-75
2022/03/16 06:00:11;;;;;;;9.43;8.63;;;;;;;9.69;100.00;99816.81;4903257;29;20246;-76
2022/03/16 06:02:38;;;;;;;9.40;8.50;;;;;;;9.60;100.00;99826.09;4911428;29;20766;-79
2022/03/16 06:05:05;;;;;;;9.53;8.63;;;;;;;9.69;100.00;99828.34;4911833;29;20237;-77
2022/03/16 06:07:32;;;;;;;9.70;8.80;;;;;;;9.70;100.00;99840.66;4906602;29;20231;-75
2022/03/16 06:09:59;;;;;;;10.17;9.17;;;;;;;9.58;100.00;99849.53;4908571;29;20238;-77
2022/03/16 06:12:27;;;;;;;10.47;9.40;;;;;;;9.55;100.00;99837.41;4908148;29;20296;-76
2022/03/16 06:14:54;;;;;;;10.40;9.40;;;;;;;9.55;100.00;99833.91;4911157;29;20230;-75
2022/03/16 06:17:21;;;;;;;10.73;9.70;;;;;;;9.65;100.00;99837.81;4912213;29;20730;-76
2022/03/16 06:19:48;;;;;;;10.93;9.93;;;;;;;9.60;100.00;99831.44;4904319;29;20234;-76
2022/03/16 06:22:15;;;;;;;10.93;9.93;;;;;;;9.50;100.00;99855.09;4909636;29;20281;-76
2022/03/16 06:24:42;;;;;;;11.00;10.00;;;;;;;9.52;100.00;99850.34;4906102;29;20320;-75
2022/03/16 06:27:09;;;;;;;10.80;9.90;;;;;;;9.39;100.00;99853.88;4904670;29;20630;-76
2022/03/16 06:29:36;;;;;;;11.13;10.13;;;;;;;9.33;100.00;99853.88;4903086;29;20262;-76
2022/03/16 06:32:03;;;;;;;11.80;10.60;;;;;;;9.49;100.00;99854.28;4910883;29;20715;-76
2022/03/16 06:34:30;;;;;;;11.47;10.37;;;;;;;9.60;100.00;99871.56;4905870;29;20273;-76
2022/03/16 06:36:57;;;;;;;11.57;10.47;;;;;;;9.57;100.00;99871.97;4907841;29;20271;-77
2022/03/16 06:39:24;;;;;;;10.37;9.40;;;;;;;9.65;100.00;99869.91;4903233;29;20826;-75
2022/03/16 06:41:51;;;;;;;11.43;10.33;;;;;;;9.57;100.00;99880.81;4911170;29;20305;-77
2022/03/16 06:44:18;;;;;;;11.20;10.10;;;;;;;9.71;100.00;99884.28;4905519;29;20238;-74
2022/03/16 06:46:46;;;;;;;11.73;10.53;;;;;;;9.62;100.00;99875.66;4909260;29;20948;-78
2022/03/16 06:49:13;;;;;;;11.33;10.30;;;;;;;9.51;100.00;99888.84;4908232;29;20321;-78
2022/03/16 06:51:40;;;;;;;12.03;10.83;;;;;;;9.64;100.00;99878.97;4910187;29;20266;-76
2022/03/16 06:54:06;;;;;;;14.03;11.43;;;;;;;9.65;100.00;99898.53;4906781;29;20321;-75
2022/03/16 06:56:33;;;;;;;12.90;11.43;;;;;;;9.69;100.00;99887.19;4909475;29;20292;-78
2022/03/16 06:59:00;;;;;;;13.13;11.83;;;;;;;9.59;100.00;99902.84;4904463;29;20238;-77
2022/03/16 07:01:27;;;;;;;13.20;11.90;;;;;;;9.47;100.00;99909.81;4908618;29;20333;-75
2022/03/16 07:03:54;;;;;;;12.70;11.40;;;;;;;9.49;100.00;99904.28;4907444;29;21383;-75
2022/03/16 07:06:21;;;;;;;13.07;11.77;;;;;;;9.46;100.00;99913.53;4908586;29;20345;-75
2022/03/16 07:08:49;;;;;;;12.73;11.43;;;;;;;9.48;100.00;99924.84;4910886;29;20275;-75
2022/03/16 07:11:17;;;;;;;14.03;12.50;;;;;;;9.36;100.00;99921.16;4909460;29;20241;-75
2022/03/16 07:14:30;;;;;;;14.03;12.63;;;;;;;9.35;100.00;99932.88;4910182;29;20296;-75
2022/03/16 07:16:30;;;;;;;13.50;12.10;;;;;;;9.30;100.00;99951.38;4905963;29;20325;-78
2022/03/16 07:18:57;;;;;;;14.00;12.50;;;;;;;9.23;100.00;99956.72;4906232;29;20238;-78
2022/03/16 07:21:24;;;;;;;14.07;12.57;;;;;;;9.04;100.00;99957.50;4902775;29;20380;-78
2022/03/16 07:23:50;;;;;;;14.17;12.67;;;;;;;9.10;100.00;99974.53;4909245;29;20249;-78
2022/03/16 07:26:17;;;;;;;14.90;13.20;;;;;;;8.97;100.00;99970.00;4905610;29;20281;-78
2022/03/16 07:28:44;;;;;;;15.37;13.77;;;;;;;8.83;100.00;99970.97;4905981;29;20322;-78
2022/03/16 07:31:11;;;;;;;15.70;13.80;;;;;;;8.87;100.00;99982.06;4904582;29;20234;-78
2022/03/16 07:33:37;;;;;;;15.43;13.77;;;;;;;8.99;100.00;99969.81;4905811;29;20718;-80
2022/03/16 07:36:04;;;;;;;15.23;13.50;;;;;;;9.05;100.00;99969.81;4903685;29;20242;-78
2022/03/16 07:38:31;;;;;;;15.90;14.23;;;;;;;9.07;100.00;99958.94;4910483;29;20245;-78
2022/03/16 07:40:59;;;;;;;14.87;12.63;;;;;;;9.31;100.00;99973.59;4906945;29;20256;-77
2022/03/16 07:43:26;;;;;;;14.90;13.37;;;;;;;9.40;100.00;99985.72;4894554;29;20238;-75
2022/03/16 07:45:52;;;;;;;14.80;13.20;;;;;;;9.56;100.00;99986.19;4900913;29;20248;-77
2022/03/16 07:48:19;;;;;;;16.90;13.47;;;;;;;9.38;100.00;99996.63;4904985;29;20242;-75
2022/03/16 07:50:46;;;;;;;15.13;13.43;;;;;;;9.48;100.00;99999.72;4906656;29;20718;-75
2022/03/16 07:53:13;;;;;;;15.40;13.53;;;;;;;9.67;100.00;99996.25;4902995;29;20306;-75
2022/03/16 07:55:40;;;;;;;14.53;12.90;;;;;;;9.87;100.00;99998.13;4900278;29;20282;-75
2022/03/16 07:58:06;;;;;;;14.30;12.33;;;;;;;10.07;100.00;99990.91;4906655;29;20326;-77
2022/03/16 08:00:33;;;;;;;13.17;11.67;;;;;;;10.08;100.00;100003.25;4892882;29;20294;-77
2022/03/16 08:03:01;;;;;;;14.70;12.57;;;;;;;10.04;100.00;100002.03;4900595;29;20323;-77
2022/03/16 08:05:29;;;;;;;14.10;12.70;;;;;;;10.03;100.00;100011.09;4897076;29;20745;-75
2022/03/16 08:07:56;;;;;;;14.53;12.97;;;;;;;9.75;100.00;100003.28;4883080;29;20690;-75
2022/03/16 08:10:23;;;;;;;15.03;12.63;;;;;;;9.81;100.00;100013.13;4891043;29;20795;-75
2022/03/16 08:12:50;;;;;;;15.40;13.80;;;;;;;9.93;100.00;100018.72;4900943;29;20245;-75
2022/03/16 08:15:17;;;;;;;15.40;13.77;;;;;;;10.03;100.00;100014.56;4896343;29;20246;-75
2022/03/16 08:17:43;;;;;;;15.17;13.57;;;;;;;10.08;100.00;100014.78;4895580;29;20232;-75
2022/03/16 08:20:11;;;;;;;15.93;14.23;;;;;;;10.05;100.00;100025.09;4892926;29;20247;-75
2022/03/16 08:22:38;;;;;;;14.77;13.33;;;;;;;10.00;100.00;100039.09;4895974;29;20234;-74
2022/03/16 08:25:07;;;;;;;16.07;14.37;;;;;;;9.84;100.00;100031.47;4894258;29;20244;-74
2022/03/16 08:27:35;;;;;;;16.90;15.10;;;;;;;9.72;100.00;100033.94;4895096;29;20230;-75
2022/03/16 08:30:03;;;;;;;16.13;14.50;;;;;;;9.60;100.00;100040.91;4893843;29;20251;-76
2022/03/16 08:32:29;;;;;;;17.83;15.93;;;;;;;9.50;100.00;100042.34;4894131;29;20240;-74
2022/03/16 08:34:57;;;;;;;18.67;16.67;;;;;;;9.53;100.00;100039.25;4893146;29;20326;-77
2022/03/16 08:37:24;;;;;;;18.07;16.10;;;;;;;9.43;100.00;100053.00;4895860;29;20322;-77
2022/03/16 08:39:52;;;;;;;17.87;15.93;;;;;;;9.33;100.00;100059.78;4897154;29;20253;-77
2022/03/16 08:42:19;;;;;;;19.03;16.57;;;;;;;9.22;100.00;100051.31;4895846;29;20325;-74
2022/03/16 08:44:45;;;;;;;18.93;16.73;;;;;;;9.13;100.00;100059.72;4897861;29;20244;-77
2022/03/16 08:47:16;;;;;;;19.07;16.90;;;;;;;9.14;100.00;100056.84;4900598;29;20256;-74
2022/03/16 08:49:44;;;;;;;19.70;17.60;;;;;;;9.04;100.00;100064.41;4900139;29;20334;-74
2022/03/16 08:52:11;;;;;;;19.13;17.03;;;;;;;8.96;100.00;100058.41;4898984;29;20240;-75
2022/03/16 08:54:40;;;;;;;19.23;16.83;;;;;;;9.01;100.00;100067.44;4902867;29;20313;-75
2022/03/16 08:57:09;;;;;;;19.03;17.03;;;;;;;8.97;100.00;100068.88;4897629;29;20650;-74
2022/03/16 08:59:38;;;;;;;20.43;17.70;;;;;;;8.91;100.00;100076.88;4906908;29;20806;-74
2022/03/16 09:02:06;;;;;;;19.40;17.30;;;;;;;9.02;100.00;100082.47;4911088;29;20316;-78
2022/03/16 09:04:34;;;;;;;19.87;17.77;;;;;;;8.94;100.00;100076.47;4901217;29;20235;-78
2022/03/16 09:07:04;;;;;;;20.43;17.90;;;;;;;8.93;100.00;100086.34;4904813;29;20281;-77
2022/03/16 09:09:37;;;;;;;22.13;18.60;;;;;;;8.92;100.00;100087.34;4905503;29;20242;-77
2022/03/16 09:12:04;;;;;;;20.60;18.40;;;;;;;8.96;100.00;100095.81;4906546;29;20715;-78
2022/03/16 09:14:31;;;;;;;20.50;18.30;;;;;;;8.85;100.00;100097.19;4902944;29;20322;-77
2022/03/16 09:16:59;;;;;;;21.33;19.07;;;;;;;8.93;100.00;100098.88;4907189;29;20230;-77
2022/03/16 09:19:26;;;;;;;21.10;18.83;;;;;;;8.89;100.00;100103.78;4900409;29;20234;-77
2022/03/16 09:21:52;;;;;;;22.10;19.30;;;;;;;8.85;100.00;100105.22;4901938;29;20709;-77
2022/03/16 09:24:19;;;;;;;21.17;19.00;;;;;;;8.71;100.00;100106.16;4904152;29;20321;-75
2022/03/16 09:26:46;;;;;;;21.43;19.23;;;;;;;8.72;100.00;100105.97;4904608;29;20234;-75
2022/03/16 09:29:13;;;;;;;21.13;18.93;;;;;;;8.73;100.00;100104.09;4905173;29;20245;-75
2022/03/16 09:31:40;;;;;;;21.13;18.83;;;;;;;8.80;100.00;100115.66;4904965;29;20262;-74
2022/03/16 09:34:07;;;;;;;22.37;19.30;;;;;;;8.79;100.00;100111.34;4904137;29;20268;-75
2022/03/16 09:36:36;;;;;;;21.57;19.20;;;;;;;8.74;100.00;100106.56;4907208;29;20611;-75
2022/03/16 09:39:04;;;;;;;20.60;18.50;;;;;;;8.80;100.00;100119.16;4906521;29;20230;-75
2022/03/16 09:41:30;;;;;;;21.30;18.90;;;;;;;8.86;100.00;100114.06;4900482;29;20302;-74
2022/03/16 09:44:04;;;;;;;22.07;19.77;;;;;;;8.96;100.00;100114.53;4906132;29;20238;-74
2022/03/16 09:46:32;;;;;;;20.40;18.20;;;;;;;8.98;100.00;100115.97;4907701;29;20238;-75
2022/03/16 09:48:59;;;;;;;21.33;18.87;;;;;;;8.98;100.00;100115.97;4909765;29;20735;-75
2022/03/16 09:51:26;;;;;;;20.63;18.43;;;;;;;8.99;100.00;100127.47;4911497;29;20273;-77
2022/03/16 09:53:53;;;;;;;22.47;19.00;;;;;;;9.03;100.00;100123.41;4911746;29;20230;-78
2022/03/16 09:56:20;;;;;;;21.37;19.20;;;;;;;8.97;100.00;100130.34;4908631;29;20611;-77
2022/03/16 09:58:47;;;;;;;20.30;18.20;;;;;;;9.09;100.00;100130.63;4913055;29;20277;-77
2022/03/16 10:01:14;;;;;;;19.87;17.83;;;;;;;9.23;100.00;100132.34;4909232;29;20236;-77
2022/03/16 10:03:47;;;;;;;19.77;17.73;;;;;;;9.41;100.00;100132.63;4912060;29;20666;-77
2022/03/16 10:06:22;;;;;;;21.03;18.83;;;;;;;9.42;100.00;100131.59;4909579;29;20601;-74
2022/03/16 10:14:20;;;;;;;19.47;17.47;;;;;;;9.41;100.00;100145.16;4912965;29;20234;-75
2022/03/16 10:19:54;;;;;;;21.27;19.07;;;;;;;9.42;100.00;100161.03;4913959;29;20660;-74
2022/03/16 10:22:32;;;;;;;20.73;18.60;;;;;;;9.27;100.00;100155.81;4912521;29;20261;-75
2022/03/16 10:25:06;;;;;;;20.57;18.47;;;;;;;9.18;100.00;100162.34;4907175;29;20286;-74
2022/03/16 10:27:37;;;;;;;20.43;18.33;;;;;;;9.12;100.00;100165.81;4905750;29;20718;-74
2022/03/16 10:30:07;;;;;;;20.53;18.43;;;;;;;9.12;100.00;100165.81;4902635;29;20249;-74
2022/03/16 10:33:00;;;;;;;21.13;18.97;;;;;;;9.08;100.00;100169.06;4903540;29;20254;-74
2022/03/16 10:35:27;;;;;;;20.90;18.77;;;;;;;9.06;100.00;100177.28;4899638;29;20316;-75
2022/03/16 10:38:07;;;;;;;21.67;19.53;;;;;;;8.89;100.00;100172.44;4905040;29;20318;-75
2022/03/16 10:40:34;;;;;;;20.30;18.17;;;;;;;8.86;100.00;100173.66;4904330;29;20267;-74
2022/03/16 10:49:03;;;;;;;22.53;20.07;;;;;;;8.79;100.00;100172.78;4903016;29;20949;-74
2022/03/16 10:51:31;;;;;;;22.40;20.00;;;;;;;8.68;100.00;100179.47;4901295;29;20289;-75
2022/03/16 10:54:15;;;;;;;22.90;20.60;;;;;;;8.76;100.00;100182.03;4903311;29;20293;-75
2022/03/16 10:56:44;;;;;;;22.23;19.93;;;;;;;8.91;100.00;100176.59;4908649;29;20252;-75
2022/03/16 10:59:11;;;;;;;22.63;20.23;;;;;;;8.85;100.00;100180.03;4907252;29;20337;-75
2022/03/16 11:01:39;;;;;;;22.77;20.37;;;;;;;8.77;100.00;100180.19;4903155;29;20230;-74
2022/03/16 11:04:07;;;;;;;23.07;20.67;;;;;;;8.89;100.00;100178.59;4910600;29;20222;-74
2022/03/16 11:06:35;;;;;;;22.90;20.13;;;;;;;8.92;100.00;100185.41;4905768;29;20757;-74
2022/03/16 11:09:01;;;;;;;22.80;20.43;;;;;;;9.12;100.00;100176.50;4907655;29;20364;-74
2022/03/16 11:14:17;;;;;;;22.97;20.57;;;;;;;9.37;100.00;100186.72;4910110;29;20583;-74
2022/03/16 11:16:44;;;;;;;22.17;19.97;;;;;;;9.28;100.00;100178.84;4908248;29;20247;-75
2022/03/16 11:19:15;;;;;;;22.77;20.50;;;;;;;9.36;100.00;100187.72;4907069;29;20725;-74
2022/03/16 11:22:12;;;;;;;22.23;19.93;;;;;;;9.39;100.00;100190.00;4904008;29;20234;-74
2022/03/16 11:24:43;;;;;;;22.60;20.20;;;;;;;9.32;100.00;100189.97;4891662;29;20295;-75
2022/03/16 11:27:30;;;;;;;22.20;19.93;;;;;;;9.21;100.00;100198.53;4908596;29;20249;-75
2022/03/16 11:29:58;;;;;;;22.47;20.10;;;;;;;9.07;100.00;100192.28;4900393;29;20246;-75
2022/03/16 11:32:32;;;;;;;23.47;21.07;;;;;;;9.10;100.00;100199.09;4906376;29;20291;-74
2022/03/16 11:35:00;;;;;;;23.47;21.07;;;;;;;9.10;100.00;100199.09;4903657;29;20239;-74
2022/03/16 11:37:33;;;;;;;24.53;21.90;;;;;;;9.18;100.00;100201.63;4907038;29;20262;-74
2022/03/16 11:40:11;;;;;;;23.80;21.33;;;;;;;9.06;100.00;100204.00;4904579;29;20242;-75